createdAt,value
2022-09-09T00:02:11.620Z,16.88
2022-09-09T00:12:17.306Z,16.71
2022-09-09T00:22:27.601Z,16.57
2022-09-09T00:32:35.245Z,16.45
2022-09-09T00:42:47.251Z,16.32
2022-09-09T00:52:59.145Z,16.13
2022-09-09T01:03:20.626Z,16.00
2022-09-09T01:13:32.103Z,15.91
2022-09-09T01:23:47.530Z,15.89
2022-09-09T01:33:54.720Z,15.88
2022-09-09T01:44:02.190Z,15.86
2022-09-09T01:54:10.244Z,15.92
2022-09-09T02:04:25.494Z,15.95
2022-09-09T02:14:38.791Z,15.96
2022-09-09T02:24:46.185Z,16.11
2022-09-09T02:34:58.751Z,16.28
2022-09-09T02:45:04.481Z,16.46
2022-09-09T02:55:13.651Z,16.49
2022-09-09T03:05:19.444Z,16.56
2022-09-09T03:15:30.577Z,16.52
2022-09-09T03:25:37.246Z,16.51
2022-09-09T03:35:50.109Z,16.50
2022-09-09T03:45:57.521Z,16.42
2022-09-09T03:56:03.362Z,16.32
2022-09-09T04:06:13.611Z,16.23
2022-09-09T04:16:21.335Z,16.14
2022-09-09T04:26:29.053Z,16.09
2022-09-09T04:36:33.597Z,16.10
2022-09-09T04:46:42.352Z,16.15
2022-09-09T04:56:49.623Z,16.35
2022-09-09T05:06:56.728Z,16.52
2022-09-09T05:17:03.758Z,16.71
2022-09-09T05:27:13.375Z,17.48
2022-09-09T05:37:20.024Z,18.30
2022-09-09T05:47:27.506Z,19.17
2022-09-09T05:57:35.328Z,20.40
2022-09-09T06:07:43.878Z,21.32
2022-09-09T06:17:55.996Z,22.18
2022-09-09T06:28:03.468Z,22.87
2022-09-09T06:38:11.009Z,23.43
2022-09-09T06:48:18.046Z,23.98
2022-09-09T06:58:25.040Z,24.29
2022-09-09T07:08:31.608Z,24.33
2022-09-09T07:18:39.384Z,24.35
2022-09-09T07:28:46.913Z,24.23
2022-09-09T07:38:56.840Z,24.03
2022-09-09T07:49:04.811Z,23.59
2022-09-09T07:59:13.189Z,23.56
2022-09-09T08:09:21.063Z,23.75
2022-09-09T08:19:30.440Z,24.02
2022-09-09T08:29:39.051Z,24.28
2022-09-09T08:39:46.127Z,24.33
2022-09-09T08:49:52.005Z,24.18
2022-09-09T08:59:58.784Z,23.95
2022-09-09T09:10:09.103Z,24.05
2022-09-09T09:20:25.471Z,23.71
2022-09-09T09:30:31.215Z,23.81
2022-09-09T09:40:38.707Z,23.87
2022-09-09T09:50:49.016Z,24.28
2022-09-09T10:00:57.116Z,24.02
2022-09-09T10:11:08.302Z,23.37
2022-09-09T10:21:22.976Z,23.32
2022-09-09T10:31:36.379Z,23.60
2022-09-09T10:41:52.249Z,24.01
2022-09-09T10:51:57.999Z,24.16
2022-09-09T11:02:13.837Z,24.08
2022-09-09T11:12:23.239Z,23.83
2022-09-09T11:22:31.624Z,23.61
2022-09-09T11:33:09.975Z,23.83
2022-09-09T11:43:17.532Z,23.84
2022-09-09T11:53:24.033Z,24.03
2022-09-09T12:03:41.817Z,24.12
2022-09-09T12:13:54.951Z,24.12
2022-09-09T12:24:09.585Z,24.28
2022-09-09T12:34:17.430Z,24.26
2022-09-09T12:44:25.202Z,24.03
2022-09-09T12:54:32.411Z,23.62
2022-09-09T13:04:39.633Z,23.63
2022-09-09T13:14:44.719Z,23.84
2022-09-09T13:25:04.726Z,23.83
2022-09-09T13:35:24.421Z,23.75
2022-09-09T13:45:31.932Z,24.11
2022-09-09T13:55:39.678Z,24.02
2022-09-09T14:05:48.146Z,23.71
2022-09-09T14:15:52.066Z,23.55
2022-09-09T14:25:59.295Z,23.32
2022-09-09T14:36:04.674Z,23.12
2022-09-09T14:46:13.712Z,22.93
2022-09-09T14:56:22.461Z,22.73
2022-09-09T15:06:32.858Z,22.63
2022-09-09T15:16:41.594Z,22.52
2022-09-09T15:26:48.681Z,22.46
2022-09-09T15:36:55.402Z,22.38
2022-09-09T15:47:02.381Z,22.24
2022-09-09T15:57:10.525Z,22.07
2022-09-09T16:07:17.495Z,21.74
2022-09-09T16:17:24.016Z,21.39
2022-09-09T16:27:31.650Z,20.94
2022-09-09T16:37:37.461Z,20.63
2022-09-09T16:47:45.345Z,20.34
2022-09-09T16:57:52.862Z,19.94
2022-09-09T17:07:58.680Z,19.39
2022-09-09T17:18:06.347Z,19.04
2022-09-09T17:28:13.820Z,18.79
2022-09-09T17:38:20.105Z,18.63
2022-09-09T17:48:28.530Z,18.46
2022-09-09T17:58:34.185Z,18.05
2022-09-09T18:08:41.631Z,17.61
2022-09-09T18:18:49.826Z,17.40
2022-09-09T18:28:59.617Z,17.32
2022-09-09T18:39:08.948Z,17.26
2022-09-09T18:49:17.084Z,17.38
2022-09-09T18:59:25.765Z,17.46
2022-09-09T19:09:34.324Z,17.25
2022-09-09T19:19:41.254Z,17.13
2022-09-09T19:29:48.552Z,17.15
2022-09-09T19:39:55.944Z,17.20
2022-09-09T19:50:05.926Z,17.15
2022-09-09T20:00:15.054Z,16.89
2022-09-09T20:10:23.667Z,16.78
2022-09-09T20:20:30.670Z,16.79
2022-09-09T20:30:37.365Z,16.87
2022-09-09T20:40:44.453Z,16.76
2022-09-09T20:50:51.602Z,16.60
2022-09-09T21:01:00.566Z,16.62
2022-09-09T21:11:07.179Z,16.59
2022-09-09T21:21:15.392Z,16.75
2022-09-09T21:31:27.469Z,16.80
2022-09-09T21:41:36.709Z,16.83
2022-09-09T21:51:43.946Z,16.64
2022-09-09T22:01:51.526Z,16.44
2022-09-09T22:11:58.274Z,16.46
2022-09-09T22:22:05.262Z,16.33
2022-09-09T22:32:12.857Z,16.19
2022-09-09T22:42:20.143Z,16.20
2022-09-09T22:52:27.520Z,16.19
2022-09-09T23:02:38.707Z,16.27
2022-09-09T23:12:49.489Z,16.37
2022-09-09T23:22:54.309Z,16.37
2022-09-09T23:33:01.859Z,16.33
2022-09-09T23:43:08.918Z,16.27
2022-09-09T23:53:16.136Z,16.17
